Time;durP1;ratioP1;P1;durP2;ratioP2;P2;SDS_P1;SDS_P2;PMS_P1;PMS_P2;Temp;Humidity;BMP_temperature;BMP_pressure;BME280_temperature;BME280_humidity;BME280_pressure;Samples;Min_cycle;Max_cycle;Signal;HPM_P1;HPM_P2
2021/12/12 00:00:15;;;;;;;7.00;2.80;;;;;;;4.55;87.39;96995.72;5036698;28;20215;-70
2021/12/12 00:02:56;;;;;;;7.00;1.53;;;;;;;4.54;87.33;96992.25;5036428;28;20228;-71
2021/12/12 00:05:26;;;;;;;6.10;3.33;;;;;;;4.47;87.71;96991.09;5036233;28;20677;-70
2021/12/12 00:07:53;;;;;;;7.67;4.27;;;;;;;4.31;87.44;96997.66;5036822;28;20305;-71
2021/12/12 00:10:24;;;;;;;7.10;2.87;;;;;;;4.55;87.52;97003.53;5035973;28;20215;-71
2021/12/12 00:12:54;;;;;;;4.33;3.13;;;;;;;4.60;87.76;97001.41;5036365;28;20231;-69
2021/12/12 00:15:23;;;;;;;2.83;2.30;;;;;;;4.62;87.58;97000.31;5036758;28;20204;-71
2021/12/12 00:17:51;;;;;;;4.40;2.23;;;;;;;4.48;87.99;97010.19;5036859;28;21162;-70
2021/12/12 00:20:24;;;;;;;5.43;3.00;;;;;;;4.71;87.35;97015.25;5036196;28;20205;-70
2021/12/12 00:22:52;;;;;;;22.57;3.30;;;;;;;4.38;87.60;97011.88;5036202;28;20225;-69
2021/12/12 00:25:19;;;;;;;6.70;2.90;;;;;;;4.46;87.56;97014.72;5036371;28;20208;-69
2021/12/12 00:27:46;;;;;;;15.53;2.63;;;;;;;4.28;87.76;97013.56;5036977;28;20208;-70
2021/12/12 00:30:13;;;;;;;4.93;2.70;;;;;;;4.54;87.55;97005.31;5036389;28;20204;-71
2021/12/12 00:32:40;;;;;;;4.77;3.93;;;;;;;4.54;87.03;97010.53;5035359;28;20225;-72
2021/12/12 00:35:12;;;;;;;3.40;1.50;;;;;;;4.80;87.19;97008.44;5036257;28;20303;-69
2021/12/12 00:37:39;;;;;;;3.57;3.07;;;;;;;4.44;87.31;97012.22;5036705;28;20227;-70
2021/12/12 00:40:11;;;;;;;5.60;2.70;;;;;;;4.73;87.49;97015.13;5035927;28;20201;-71
2021/12/12 00:42:39;;;;;;;7.77;3.03;;;;;;;4.48;87.31;97007.56;5035642;28;20225;-69
2021/12/12 00:45:09;;;;;;;1.87;1.77;;;;;;;4.53;88.35;97011.50;5036202;28;20224;-69
2021/12/12 00:47:35;;;;;;;5.83;2.50;;;;;;;4.57;87.12;97014.69;5035841;28;20205;-70
2021/12/12 00:50:05;;;;;;;3.83;2.50;;;;;;;4.84;86.77;97021.16;5036768;28;20218;-69
2021/12/12 00:52:33;;;;;;;3.43;2.07;;;;;;;4.89;86.54;97025.03;5036302;28;20268;-69
2021/12/12 00:55:00;;;;;;;4.73;1.60;;;;;;;4.72;86.76;97021.28;5036353;28;20203;-69
2021/12/12 00:57:27;;;;;;;5.20;2.73;;;;;;;4.64;86.63;97023.69;5036129;28;20224;-69
2021/12/12 00:59:53;;;;;;;3.43;2.23;;;;;;;4.51;86.78;97025.63;5037048;28;20220;-69
2021/12/12 01:02:24;;;;;;;5.37;2.13;;;;;;;4.79;87.04;97027.69;5035071;28;20585;-69
2021/12/12 01:04:53;;;;;;;3.80;2.73;;;;;;;4.70;87.07;97028.41;5036376;28;20232;-69
2021/12/12 01:07:23;;;;;;;2.57;2.27;;;;;;;4.84;86.61;97032.41;5036134;28;20208;-69
2021/12/12 01:09:57;;;;;;;3.50;1.93;;;;;;;5.04;86.44;97039.47;5037862;28;20208;-69
2021/12/12 01:12:30;;;;;;;5.07;2.27;;;;;;;4.97;86.64;97043.53;5034431;28;20225;-69
2021/12/12 01:15:00;;;;;;;3.60;1.40;;;;;;;4.90;86.88;97051.97;5038388;28;20209;-69
2021/12/12 01:17:33;;;;;;;1.97;1.83;;;;;;;4.82;86.85;97051.75;5037916;28;20224;-69
2021/12/12 01:20:09;;;;;;;2.53;1.70;;;;;;;4.78;87.17;97060.78;5038014;28;20239;-69
2021/12/12 01:22:37;;;;;;;5.27;2.50;;;;;;;4.58;87.25;97064.16;5037373;28;20930;-69
2021/12/12 01:25:13;;;;;;;4.50;2.23;;;;;;;4.93;87.17;97065.63;5038117;28;20683;-69
2021/12/12 01:27:39;;;;;;;3.77;2.57;;;;;;;4.54;86.84;97069.72;5037518;28;20201;-70
2021/12/12 01:30:09;;;;;;;4.57;2.10;;;;;;;4.72;87.38;97063.88;5038325;28;20197;-69
2021/12/12 01:32:37;;;;;;;3.97;1.90;;;;;;;4.37;87.85;97072.84;5036160;28;20228;-69
2021/12/12 01:35:13;;;;;;;8.13;3.90;;;;;;;4.58;87.77;97077.22;5037660;28;20295;-69
2021/12/12 01:37:42;;;;;;;3.20;2.37;;;;;;;4.32;87.84;97085.41;5038370;28;20256;-69
2021/12/12 01:40:16;;;;;;;7.07;2.90;;;;;;;4.85;87.52;97080.25;5038420;28;20205;-69
2021/12/12 01:42:46;;;;;;;2.93;2.27;;;;;;;4.71;87.30;97085.75;5037285;28;20224;-69
2021/12/12 01:45:17;;;;;;;2.87;2.17;;;;;;;4.66;87.13;97081.81;5039514;28;20217;-69
2021/12/12 01:47:49;;;;;;;2.33;1.80;;;;;;;4.73;87.11;97086.44;5041584;28;20282;-69
2021/12/12 01:50:20;;;;;;;3.17;1.93;;;;;;;4.80;86.46;97089.38;5041855;28;20201;-69
2021/12/12 01:52:47;;;;;;;4.33;2.37;;;;;;;4.21;87.61;97088.00;5040563;28;20232;-69
2021/12/12 01:55:23;;;;;;;3.10;1.93;;;;;;;4.54;87.24;97090.63;5041469;28;20204;-69
2021/12/12 01:57:51;;;;;;;3.70;2.30;;;;;;;4.30;87.69;97090.75;5040957;28;20370;-69
2021/12/12 02:00:21;;;;;;;4.00;2.50;;;;;;;4.40;87.29;97090.84;5041254;28;20204;-69
2021/12/12 02:02:48;;;;;;;3.60;2.87;;;;;;;3.98;88.06;97101.97;5041184;28;20221;-69
2021/12/12 02:05:18;;;;;;;5.67;2.07;;;;;;;4.16;88.17;97092.75;5040380;28;20209;-69
2021/12/12 02:07:46;;;;;;;5.20;2.50;;;;;;;4.19;87.53;97084.69;5040298;28;20202;-69
2021/12/12 02:10:20;;;;;;;3.23;2.83;;;;;;;4.26;87.07;97091.09;5041698;28;20201;-69
2021/12/12 02:12:47;;;;;;;11.57;3.47;;;;;;;4.08;87.25;97100.31;5039513;28;20224;-69
2021/12/12 02:15:16;;;;;;;4.13;2.60;;;;;;;4.04;86.71;97098.09;5040559;28;20208;-69
2021/12/12 02:17:46;;;;;;;3.23;2.43;;;;;;;4.05;86.71;97095.34;5041526;28;20226;-69
2021/12/12 02:20:23;;;;;;;2.47;2.13;;;;;;;4.08;86.60;97102.94;5040769;28;20205;-69
2021/12/12 02:23:03;;;;;;;3.20;2.73;;;;;;;3.97;87.29;97100.34;5040660;28;20220;-69
2021/12/12 02:36:34;;;;;;;6.37;3.13;;;;;;;3.74;87.42;97108.19;5041029;28;20719;-69
2021/12/12 02:39:08;;;;;;;9.23;3.27;;;;;;;3.80;88.06;97100.75;5037069;28;20208;-69
2021/12/12 02:41:35;;;;;;;2.10;1.93;;;;;;;3.81;87.78;97114.63;5040378;28;20225;-69
2021/12/12 02:44:05;;;;;;;6.27;2.90;;;;;;;3.86;87.25;97113.34;5040062;28;20205;-69
2021/12/12 02:46:36;;;;;;;6.87;2.90;;;;;;;3.83;87.46;97118.78;5040735;28;20213;-69
2021/12/12 02:49:10;;;;;;;3.27;2.83;;;;;;;3.92;87.29;97118.09;5039672;28;20209;-69
2021/12/12 02:51:38;;;;;;;4.50;3.27;;;;;;;3.84;87.42;97117.81;5040054;28;20229;-69
2021/12/12 02:54:07;;;;;;;5.60;3.07;;;;;;;3.82;87.94;97111.91;5039404;28;20215;-69
2021/12/12 02:56:38;;;;;;;5.73;3.10;;;;;;;3.65;88.03;97120.16;5039752;28;20216;-69
2021/12/12 02:59:07;;;;;;;2.53;2.00;;;;;;;3.80;87.51;97120.78;5040384;28;20584;-69
2021/12/12 03:01:36;;;;;;;3.10;2.73;;;;;;;4.02;87.13;97121.69;5040485;28;20255;-69
2021/12/12 03:04:03;;;;;;;4.70;3.17;;;;;;;3.88;87.55;97119.28;5039591;28;20211;-69
2021/12/12 03:06:34;;;;;;;4.77;3.00;;;;;;;3.95;87.65;97117.84;5040106;28;20204;-69
2021/12/12 03:09:05;;;;;;;4.07;2.20;;;;;;;4.04;87.55;97119.75;5039322;28;20235;-69
2021/12/12 03:11:33;;;;;;;3.83;2.80;;;;;;;3.93;87.41;97119.72;5036193;28;20229;-69
2021/12/12 03:14:00;;;;;;;5.90;3.30;;;;;;;3.70;87.37;97123.25;5037539;28;20220;-69
2021/12/12 03:16:27;;;;;;;6.83;3.63;;;;;;;3.79;87.59;97127.78;5036953;28;20576;-69
2021/12/12 03:18:55;;;;;;;4.77;2.60;;;;;;;3.69;87.23;97126.81;5037657;28;20232;-71
2021/12/12 03:21:30;;;;;;;3.53;2.70;;;;;;;3.85;87.96;97127.31;5037287;28;20220;-69
2021/12/12 03:23:58;;;;;;;3.53;2.07;;;;;;;3.84;87.65;97109.19;5036630;28;20200;-69
2021/12/12 03:26:25;;;;;;;2.00;1.80;;;;;;;3.51;88.09;97122.09;5037209;28;20889;-70
2021/12/12 03:28:56;;;;;;;3.67;2.03;;;;;;;3.71;88.07;97124.91;5036739;28;20213;-70
2021/12/12 03:31:26;;;;;;;4.20;2.67;;;;;;;3.72;88.26;97123.97;5036538;28;20755;-70
2021/12/12 03:33:53;;;;;;;3.97;2.93;;;;;;;3.57;87.67;97126.06;5037310;28;20216;-69
2021/12/12 03:36:20;;;;;;;1.60;1.50;;;;;;;3.37;88.55;97130.09;5036778;28;20201;-69
2021/12/12 03:38:51;;;;;;;3.70;1.67;;;;;;;3.58;87.51;97125.09;5032821;28;20225;-70
2021/12/12 03:41:20;;;;;;;3.57;1.43;;;;;;;3.53;88.22;97127.22;5036242;28;20231;-69
2021/12/12 03:43:51;;;;;;;2.63;2.27;;;;;;;3.77;87.92;97127.06;5035918;28;20645;-69
2021/12/12 03:46:19;;;;;;;2.83;2.03;;;;;;;3.60;88.65;97136.25;5035414;28;20215;-69
2021/12/12 03:48:46;;;;;;;2.70;2.27;;;;;;;3.24;88.54;97139.75;5038383;28;20494;-69
2021/12/12 03:51:16;;;;;;;2.33;1.93;;;;;;;3.53;88.46;97140.25;5036708;28;20511;-69
2021/12/12 03:53:43;;;;;;;3.43;2.00;;;;;;;3.49;87.89;97137.03;5037513;28;20489;-69
2021/12/12 03:56:12;;;;;;;0.87;0.87;;;;;;;3.31;88.83;97130.56;5038411;28;20213;-69
2021/12/12 03:58:39;;;;;;;3.27;2.03;;;;;;;3.51;87.90;97142.94;5037533;28;20696;-69
2021/12/12 04:01:09;;;;;;;4.93;1.93;;;;;;;3.68;88.16;97147.78;5036026;28;20481;-69
2021/12/12 04:03:38;;;;;;;2.87;2.07;;;;;;;3.45;88.14;97145.19;5036332;28;20485;-69
2021/12/12 04:06:09;;;;;;;3.50;2.13;;;;;;;3.45;88.52;97153.00;5036134;28;20232;-69
2021/12/12 04:08:38;;;;;;;2.57;1.70;;;;;;;3.42;87.63;97143.63;5035570;28;20470;-69
2021/12/12 04:11:12;;;;;;;3.57;1.97;;;;;;;3.64;86.97;97147.16;5033277;28;20227;-70
2021/12/12 04:13:39;;;;;;;3.13;2.27;;;;;;;3.42;87.52;97145.41;5036012;28;20205;-69
2021/12/12 04:16:06;;;;;;;4.10;2.17;;;;;;;3.32;87.10;97157.44;5035701;28;20201;-69
2021/12/12 04:18:33;;;;;;;7.00;2.60;;;;;;;3.26;86.48;97152.66;5036776;28;20235;-69
2021/12/12 04:21:01;;;;;;;5.67;3.17;;;;;;;3.57;86.61;97157.31;5037061;28;20237;-69
2021/12/12 04:23:28;;;;;;;4.23;1.93;;;;;;;3.41;86.10;97162.81;5035494;28;20201;-69
2021/12/12 04:25:55;;;;;;;3.33;2.07;;;;;;;3.62;85.42;97155.22;5037089;28;20252;-69
2021/12/12 04:28:22;;;;;;;3.50;2.00;;;;;;;3.56;84.54;97163.47;5037447;28;20193;-69
2021/12/12 04:30:48;;;;;;;1.87;1.17;;;;;;;3.53;84.73;97156.72;5036597;28;20232;-69
2021/12/12 04:33:15;;;;;;;1.33;1.23;;;;;;;3.53;85.42;97166.31;5036403;28;20452;-69
2021/12/12 04:35:42;;;;;;;6.37;2.30;;;;;;;3.77;84.14;97168.75;5038097;28;20215;-69
2021/12/12 04:38:10;;;;;;;2.50;2.03;;;;;;;3.93;84.02;97171.88;5036508;28;20247;-69
2021/12/12 04:40:37;;;;;;;2.93;1.87;;;;;;;3.84;84.41;97177.78;5037462;28;20211;-69
2021/12/12 04:43:04;;;;;;;4.87;2.23;;;;;;;3.84;84.00;97176.97;5036409;28;20260;-69
2021/12/12 04:45:51;;;;;;;2.83;1.40;;;;;;;4.01;84.42;97182.59;5038380;28;20205;-69
2021/12/12 04:51:14;;;;;;;3.70;2.13;;;;;;;3.64;85.65;97170.63;5037246;28;20238;-69
2021/12/12 04:53:47;;;;;;;3.43;1.53;;;;;;;3.63;85.97;97174.16;5036775;28;20211;-69
2021/12/12 04:56:21;;;;;;;4.57;2.03;;;;;;;3.66;86.40;97179.13;5036885;28;20212;-69
2021/12/12 04:58:58;;;;;;;4.07;1.83;;;;;;;3.79;85.58;97182.53;5037026;28;20597;-69
2021/12/12 05:01:28;;;;;;;1.07;1.03;;;;;;;3.57;85.84;97175.56;5037462;28;20217;-69
2021/12/12 05:03:58;;;;;;;3.17;1.80;;;;;;;3.81;84.66;97172.81;5036294;28;20208;-69
2021/12/12 05:06:29;;;;;;;2.77;1.87;;;;;;;3.82;84.22;97182.28;5037238;28;20195;-69
2021/12/12 05:09:03;;;;;;;1.30;1.20;;;;;;;3.88;83.74;97183.59;5037047;28;20247;-69
2021/12/12 05:11:36;;;;;;;1.73;1.37;;;;;;;3.80;83.30;97186.78;5033957;28;20230;-69
2021/12/12 05:14:12;;;;;;;1.60;1.40;;;;;;;3.98;82.71;97184.59;5036484;28;20213;-69
2021/12/12 05:16:42;;;;;;;2.13;0.90;;;;;;;3.93;82.35;97187.53;5037065;28;20209;-69
2021/12/12 05:19:13;;;;;;;2.87;1.93;;;;;;;4.00;82.40;97188.75;5038975;28;20239;-69
2021/12/12 05:21:44;;;;;;;2.50;1.47;;;;;;;4.01;82.26;97189.56;5041875;28;20232;-69
2021/12/12 05:24:13;;;;;;;1.57;1.37;;;;;;;4.12;81.69;97193.03;5041264;28;20213;-69
2021/12/12 05:26:44;;;;;;;1.70;1.57;;;;;;;3.89;82.09;97198.31;5041831;28;20218;-69
2021/12/12 05:29:14;;;;;;;0.80;0.80;;;;;;;3.62;82.14;97203.75;5041407;28;20202;-69
2021/12/12 05:31:45;;;;;;;0.80;0.80;;;;;;;3.74;81.69;97202.88;5040712;28;20228;-69
2021/12/12 05:34:12;;;;;;;0.60;0.60;;;;;;;3.65;80.96;97205.31;5038876;28;20216;-67
2021/12/12 05:36:39;;;;;;;1.07;1.03;;;;;;;3.63;81.20;97208.03;5039901;28;20574;-69
2021/12/12 05:39:06;;;;;;;1.33;1.23;;;;;;;3.77;81.09;97213.06;5039679;28;20221;-70
2021/12/12 05:41:35;;;;;;;1.53;0.90;;;;;;;3.86;80.56;97208.97;5039678;28;20251;-69
2021/12/12 05:44:03;;;;;;;2.07;1.27;;;;;;;3.88;80.71;97202.69;5038278;28;20205;-69
2021/12/12 05:46:30;;;;;;;0.70;0.70;;;;;;;3.78;80.31;97204.31;5040375;28;20699;-69
2021/12/12 05:48:59;;;;;;;2.23;1.37;;;;;;;3.85;79.97;97205.50;5039247;28;20208;-67
2021/12/12 05:51:26;;;;;;;3.33;2.07;;;;;;;3.90;80.59;97202.59;5039960;28;20231;-69
2021/12/12 05:53:54;;;;;;;2.27;1.53;;;;;;;3.82;80.25;97203.16;5038161;28;20203;-69
2021/12/12 05:56:24;;;;;;;1.13;1.03;;;;;;;3.92;80.60;97201.53;5039928;28;20208;-69
2021/12/12 05:58:53;;;;;;;0.60;0.60;;;;;;;4.00;80.46;97203.56;5038911;28;20705;-68
2021/12/12 06:01:21;;;;;;;2.33;1.67;;;;;;;4.14;79.58;97204.19;5038146;28;20220;-67
2021/12/12 06:03:48;;;;;;;1.53;1.23;;;;;;;4.31;79.65;97204.56;5039356;28;20201;-70
2021/12/12 06:06:18;;;;;;;2.00;1.47;;;;;;;4.27;79.89;97213.56;5039613;28;20689;-68
2021/12/12 06:08:46;;;;;;;1.50;1.20;;;;;;;4.03;80.63;97222.41;5039562;28;20219;-69
2021/12/12 06:11:15;;;;;;;1.83;1.60;;;;;;;4.39;80.31;97222.25;5035543;28;20680;-69
2021/12/12 06:13:43;;;;;;;3.17;1.47;;;;;;;4.24;80.26;97213.81;5038879;28;20200;-70
2021/12/12 06:16:18;;;;;;;1.87;1.60;;;;;;;4.34;79.86;97219.16;5038509;28;20202;-68
2021/12/12 06:18:46;;;;;;;6.30;1.30;;;;;;;4.35;80.13;97221.69;5039027;28;20232;-70
2021/12/12 06:21:13;;;;;;;1.57;1.10;;;;;;;4.32;79.45;97208.03;5038518;28;20228;-69
2021/12/12 06:23:40;;;;;;;2.27;1.77;;;;;;;4.43;79.37;97219.31;5038367;28;20964;-68
2021/12/12 06:26:06;;;;;;;3.33;1.90;;;;;;;4.34;80.06;97219.16;5038816;28;20202;-67
2021/12/12 06:28:38;;;;;;;1.10;1.10;;;;;;;4.63;80.04;97213.38;5039123;28;20250;-70
2021/12/12 06:31:06;;;;;;;2.97;1.03;;;;;;;4.31;80.48;97219.41;5037861;28;20315;-69
2021/12/12 06:33:37;;;;;;;1.47;1.37;;;;;;;4.52;79.77;97217.78;5038189;28;20216;-70
2021/12/12 06:36:05;;;;;;;1.37;1.27;;;;;;;4.54;80.08;97228.94;5038780;28;20650;-68
2021/12/12 06:38:32;;;;;;;2.07;1.93;;;;;;;4.46;80.23;97224.28;5038790;28;20236;-68
2021/12/12 06:40:59;;;;;;;4.93;1.90;;;;;;;4.23;80.65;97226.97;5037801;28;20593;-69
2021/12/12 06:43:25;;;;;;;2.07;1.23;;;;;;;3.88;81.87;97231.38;5038298;28;20198;-69
2021/12/12 06:45:52;;;;;;;4.57;2.73;;;;;;;4.04;81.36;97234.50;5038246;28;20432;-69
2021/12/12 06:48:19;;;;;;;2.27;2.07;;;;;;;4.03;81.54;97237.22;5038394;28;20205;-69
2021/12/12 06:50:50;;;;;;;2.23;1.57;;;;;;;4.40;81.65;97239.59;5038347;28;20227;-70
2021/12/12 06:53:19;;;;;;;1.30;1.20;;;;;;;4.50;80.44;97237.94;5038221;28;20710;-70
2021/12/12 06:55:47;;;;;;;2.10;1.83;;;;;;;4.24;81.73;97236.47;5038531;28;20216;-70
2021/12/12 06:58:16;;;;;;;7.17;3.60;;;;;;;4.41;80.87;97238.66;5037825;28;20225;-70
2021/12/12 07:00:47;;;;;;;9.77;3.27;;;;;;;4.40;80.76;97235.22;5038283;28;20580;-69
2021/12/12 07:03:14;;;;;;;5.37;2.57;;;;;;;4.35;80.94;97241.69;5037080;28;20201;-70
2021/12/12 07:05:41;;;;;;;5.00;3.20;;;;;;;4.19;80.97;97251.63;5037888;28;20204;-69
2021/12/12 07:08:10;;;;;;;3.33;2.33;;;;;;;4.28;81.59;97256.16;5038763;28;20211;-70
2021/12/12 07:10:37;;;;;;;26.67;7.10;;;;;;;4.11;81.67;97264.41;5035219;28;20212;-69
2021/12/12 07:13:06;;;;;;;51.40;13.83;;;;;;;4.01;81.77;97258.22;5036427;28;20228;-70
2021/12/12 07:15:36;;;;;;;50.80;16.40;;;;;;;4.15;81.64;97262.41;5038379;28;20201;-69
2021/12/12 07:18:07;;;;;;;21.83;7.53;;;;;;;4.05;82.50;97266.63;5037320;28;20427;-70
2021/12/12 07:20:34;;;;;;;14.57;7.10;;;;;;;3.85;83.13;97262.88;5037757;28;20205;-70
2021/12/12 07:23:04;;;;;;;12.13;4.87;;;;;;;4.02;82.64;97259.88;5036633;28;20234;-68
2021/12/12 07:25:33;;;;;;;7.43;4.53;;;;;;;4.12;82.53;97257.41;5037817;28;20256;-70
2021/12/12 07:28:00;;;;;;;8.57;4.80;;;;;;;3.87;82.64;97263.59;5037169;28;20400;-70
2021/12/12 07:30:27;;;;;;;6.93;3.80;;;;;;;3.83;82.17;97270.00;5038093;28;20254;-70
2021/12/12 07:32:54;;;;;;;8.03;3.57;;;;;;;3.91;82.40;97266.81;5036471;28;20904;-70
2021/12/12 07:35:21;;;;;;;5.87;3.23;;;;;;;3.73;82.81;97265.56;5037738;28;20582;-71
2021/12/12 07:37:48;;;;;;;4.13;2.43;;;;;;;3.63;82.89;97278.41;5037518;28;20208;-70
2021/12/12 07:40:15;;;;;;;8.07;2.70;;;;;;;3.73;82.36;97283.81;5037534;28;20783;-69
2021/12/12 07:42:45;;;;;;;10.73;3.43;;;;;;;3.88;82.25;97275.69;5036990;28;20233;-71
2021/12/12 07:45:14;;;;;;;3.90;2.57;;;;;;;3.87;82.04;97284.47;5037635;28;20209;-71
2021/12/12 07:47:41;;;;;;;9.47;4.10;;;;;;;3.74;82.07;97286.28;5037357;28;20294;-71
2021/12/12 07:50:11;;;;;;;21.67;10.40;;;;;;;3.90;83.20;97281.63;5037962;28;20212;-69
2021/12/12 07:52:39;;;;;;;8.57;5.00;;;;;;;4.08;84.53;97285.50;5036589;28;20247;-70
2021/12/12 07:55:06;;;;;;;22.27;11.50;;;;;;;4.24;82.15;97286.84;5037657;28;20216;-69
2021/12/12 07:57:34;;;;;;;18.43;8.80;;;;;;;4.13;81.66;97283.38;5037066;28;20201;-69
2021/12/12 08:00:07;;;;;;;16.03;6.83;;;;;;;4.28;81.89;97290.09;5037378;28;20233;-70
2021/12/12 08:02:34;;;;;;;3.03;2.73;;;;;;;3.73;83.21;97287.22;5036634;28;20224;-69
2021/12/12 08:05:02;;;;;;;6.83;3.77;;;;;;;4.02;82.97;97291.19;5036540;28;20209;-72
2021/12/12 08:07:29;;;;;;;3.30;2.83;;;;;;;3.76;83.59;97292.22;5037354;28;20200;-69
2021/12/12 08:09:56;;;;;;;4.37;2.43;;;;;;;3.63;84.27;97294.03;5036509;28;20216;-70
2021/12/12 08:12:26;;;;;;;2.90;1.33;;;;;;;3.77;84.25;97296.50;5033435;28;20232;-71
2021/12/12 08:14:53;;;;;;;4.37;1.80;;;;;;;3.59;84.08;97296.13;5036514;28;20209;-70
2021/12/12 08:17:23;;;;;;;4.33;2.20;;;;;;;3.45;85.10;97291.06;5037291;28;20204;-70
2021/12/12 08:19:50;;;;;;;5.27;2.83;;;;;;;3.05;86.06;97300.00;5035957;28;20311;-71
2021/12/12 08:22:18;;;;;;;5.33;2.20;;;;;;;3.44;84.56;97299.84;5035588;28;20224;-70
2021/12/12 08:24:45;;;;;;;3.93;2.03;;;;;;;3.86;84.19;97300.22;5036479;28;20232;-70
2021/12/12 08:27:12;;;;;;;4.40;2.37;;;;;;;3.89;83.27;97290.38;5036557;28;20208;-70
2021/12/12 08:29:39;;;;;;;6.37;2.23;;;;;;;3.77;83.62;97285.25;5036614;28;20205;-70
2021/12/12 08:32:07;;;;;;;2.20;1.13;;;;;;;3.90;85.36;97286.00;5036336;28;20697;-69
2021/12/12 08:34:35;;;;;;;7.10;1.47;;;;;;;4.05;83.66;97284.88;5035064;28;20212;-70
2021/12/12 08:37:05;;;;;;;1.73;1.17;;;;;;;3.84;83.47;97294.28;5036583;28;20212;-69
2021/12/12 08:39:32;;;;;;;3.47;1.87;;;;;;;4.04;82.83;97296.28;5036127;28;20229;-71
2021/12/12 08:42:01;;;;;;;3.27;2.70;;;;;;;4.07;82.78;97302.06;5036621;28;20229;-69
2021/12/12 08:44:29;;;;;;;4.73;3.37;;;;;;;4.21;82.44;97296.69;5034492;28;20208;-71
2021/12/12 08:46:59;;;;;;;11.33;3.63;;;;;;;4.37;81.93;97290.22;5036867;28;20212;-69
2021/12/12 08:49:29;;;;;;;5.83;2.87;;;;;;;4.30;82.23;97298.59;5035937;28;20212;-69
2021/12/12 08:52:00;;;;;;;4.37;3.30;;;;;;;4.47;80.71;97293.00;5035928;28;20232;-70
2021/12/12 08:54:30;;;;;;;4.73;3.27;;;;;;;4.51;80.70;97294.44;5034862;28;20205;-69
2021/12/12 08:57:04;;;;;;;4.90;2.33;;;;;;;4.70;81.01;97298.13;5035805;28;20200;-70
2021/12/12 08:59:34;;;;;;;8.73;3.37;;;;;;;4.36;81.47;97296.38;5036545;28;20318;-70
2021/12/12 09:02:05;;;;;;;2.47;1.80;;;;;;;4.70;80.88;97299.91;5036388;28;20225;-68
2021/12/12 09:04:35;;;;;;;4.07;2.87;;;;;;;4.27;81.78;97302.28;5035846;28;20220;-70
2021/12/12 09:07:07;;;;;;;5.87;3.40;;;;;;;4.51;81.40;97299.66;5036870;28;20208;-70
2021/12/12 09:09:39;;;;;;;3.33;2.70;;;;;;;4.62;81.05;97294.44;5035979;28;20215;-70
2021/12/12 09:12:09;;;;;;;2.43;1.93;;;;;;;4.53;81.19;97297.72;5033592;28;20228;-70
2021/12/12 09:14:40;;;;;;;1.93;1.20;;;;;;;4.80;80.27;97300.88;5035779;28;20209;-70
2021/12/12 09:17:10;;;;;;;1.37;1.27;;;;;;;4.21;82.41;97309.72;5035456;28;20632;-69
2021/12/12 09:19:41;;;;;;;4.37;2.33;;;;;;;4.19;82.17;97308.16;5036738;28;20233;-69
2021/12/12 09:22:15;;;;;;;1.13;1.10;;;;;;;4.27;82.18;97307.50;5035460;28;21001;-69
2021/12/12 09:24:52;;;;;;;2.10;1.80;;;;;;;4.77;81.35;97303.72;5035861;28;20212;-69
2021/12/12 09:27:23;;;;;;;2.87;1.97;;;;;;;4.29;82.16;97310.03;5036671;28;20214;-69
2021/12/12 09:29:54;;;;;;;3.93;2.10;;;;;;;4.82;80.71;97292.81;5035790;28;20205;-69
2021/12/12 09:32:27;;;;;;;9.20;4.20;;;;;;;4.84;81.05;97288.31;5035129;28;20728;-69
2021/12/12 09:35:00;;;;;;;8.00;3.17;;;;;;;5.13;79.60;97305.19;5035352;28;20209;-68
2021/12/12 09:37:33;;;;;;;9.17;3.63;;;;;;;5.31;79.21;97306.38;5035822;28;20197;-69
2021/12/12 09:40:06;;;;;;;4.73;2.87;;;;;;;4.87;80.07;97303.75;5035413;28;20224;-68
2021/12/12 09:42:47;;;;;;;4.90;2.67;;;;;;;5.07;79.67;97299.63;5034141;28;20224;-67
2021/12/12 09:45:38;;;;;;;3.73;2.23;;;;;;;5.29;79.64;97299.59;5035562;28;20613;-69
2021/12/12 09:51:26;;;;;;;7.10;3.10;;;;;;;5.22;79.48;97287.94;5004171;28;20232;-70
2021/12/12 09:54:09;;;;;;;7.40;2.13;;;;;;;5.60;77.69;97284.00;5035040;28;20215;-69
2021/12/12 09:56:44;;;;;;;4.00;2.30;;;;;;;5.48;77.40;97282.38;5035216;28;20212;-70
2021/12/12 09:59:22;;;;;;;2.90;2.07;;;;;;;5.59;78.07;97282.34;5036028;28;20227;-70
2021/12/12 10:01:58;;;;;;;6.10;2.53;;;;;;;5.63;77.31;97284.59;5035559;28;20221;-69
2021/12/12 10:04:29;;;;;;;7.43;3.07;;;;;;;5.54;77.79;97276.66;5035186;28;20204;-68
2021/12/12 10:07:04;;;;;;;5.47;3.40;;;;;;;6.35;75.83;97274.28;5038477;28;20584;-70
2021/12/12 10:09:37;;;;;;;4.77;2.77;;;;;;;5.90;76.66;97260.66;5039120;28;20201;-68
2021/12/12 10:12:09;;;;;;;2.27;1.90;;;;;;;5.96;76.45;97262.78;5036455;28;20681;-70
2021/12/12 10:14:43;;;;;;;4.77;2.30;;;;;;;6.03;75.27;97262.16;5039706;28;20210;-70
2021/12/12 10:17:12;;;;;;;3.33;2.43;;;;;;;6.06;75.93;97257.50;5038643;28;20209;-69
2021/12/12 10:19:46;;;;;;;1.87;1.77;;;;;;;6.31;75.17;97259.78;5039450;28;20232;-69
2021/12/12 10:22:20;;;;;;;3.47;2.43;;;;;;;6.43;74.11;97258.78;5038473;28;20233;-69
2021/12/12 10:24:56;;;;;;;6.23;3.30;;;;;;;6.17;75.07;97256.63;5039554;28;20215;-70
2021/12/12 10:27:29;;;;;;;5.67;1.87;;;;;;;5.84;75.98;97258.53;5037925;28;20201;-69
2021/12/12 10:30:05;;;;;;;4.83;2.47;;;;;;;5.53;77.45;97259.31;5040301;28;20252;-69
2021/12/12 10:32:35;;;;;;;2.30;1.80;;;;;;;5.75;76.88;97257.47;5037966;28;20225;-68
2021/12/12 10:35:06;;;;;;;5.70;2.60;;;;;;;5.69;77.18;97262.34;5038923;28;20232;-70
2021/12/12 10:37:35;;;;;;;4.10;2.87;;;;;;;5.66;77.41;97249.53;5039705;28;20252;-71
2021/12/12 10:40:08;;;;;;;4.37;2.63;;;;;;;6.01;76.72;97258.84;5039348;28;20247;-70
2021/12/12 10:42:43;;;;;;;5.87;1.70;;;;;;;5.69;77.06;97260.56;5038479;28;20232;-68
2021/12/12 10:45:14;;;;;;;3.73;2.03;;;;;;;5.31;78.51;97258.50;5038269;28;20213;-70
2021/12/12 10:47:58;;;;;;;4.23;1.57;;;;;;;6.03;77.01;97248.25;5038381;28;20205;-69
2021/12/12 10:50:36;;;;;;;3.00;2.33;;;;;;;5.87;77.15;97239.97;5038960;28;20197;-70
2021/12/12 10:53:09;;;;;;;3.93;2.53;;;;;;;6.04;76.92;97245.50;5037259;28;20225;-70
2021/12/12 10:55:42;;;;;;;3.20;1.47;;;;;;;5.78;77.71;97240.72;5038864;28;20197;-70
2021/12/12 10:58:15;;;;;;;1.30;1.20;;;;;;;5.75;77.82;97244.41;5038198;28;20205;-69
2021/12/12 11:00:48;;;;;;;3.33;1.97;;;;;;;5.95;76.67;97248.06;5038322;28;20231;-70
2021/12/12 11:03:21;;;;;;;4.37;2.50;;;;;;;6.59;75.25;97248.66;5037212;28;20661;-68
2021/12/12 11:05:52;;;;;;;2.83;1.63;;;;;;;6.22;76.24;97250.09;5038449;28;20223;-67
2021/12/12 11:08:24;;;;;;;2.50;1.63;;;;;;;6.18;75.30;97251.25;5038743;28;20205;-71
2021/12/12 11:10:57;;;;;;;2.77;1.70;;;;;;;5.99;76.34;97249.47;5037893;28;20197;-70
2021/12/12 11:13:33;;;;;;;2.53;2.17;;;;;;;6.26;76.17;97254.09;5039203;28;20232;-70
2021/12/12 11:16:04;;;;;;;10.40;3.70;;;;;;;6.14;76.33;97247.25;5039697;28;20205;-70
2021/12/12 11:18:38;;;;;;;1.70;1.60;;;;;;;6.62;74.94;97251.03;5039334;28;20216;-69
2021/12/12 11:21:13;;;;;;;8.33;1.93;;;;;;;6.25;75.63;97251.59;5039521;28;20224;-69
2021/12/12 11:23:50;;;;;;;3.70;2.43;;;;;;;6.26;75.39;97246.25;5039579;28;20204;-69
2021/12/12 11:26:21;;;;;;;3.07;1.90;;;;;;;6.54;75.61;97250.84;5039842;28;20205;-69
2021/12/12 11:28:52;;;;;;;1.60;1.50;;;;;;;6.18;76.06;97245.22;5040217;28;20308;-70
2021/12/12 11:31:21;;;;;;;4.13;2.10;;;;;;;6.27;75.78;97253.13;5040087;28;20217;-70
2021/12/12 11:33:50;;;;;;;4.00;2.57;;;;;;;6.41;74.67;97252.81;5039327;28;20197;-70
2021/12/12 11:36:25;;;;;;;2.87;1.80;;;;;;;6.61;74.79;97256.41;5040516;28;20213;-70
2021/12/12 11:39:01;;;;;;;4.20;2.43;;;;;;;6.30;74.79;97249.41;5040814;28;20209;-69
2021/12/12 11:41:33;;;;;;;1.73;1.30;;;;;;;6.32;75.01;97253.56;5040360;28;20236;-69
2021/12/12 11:44:08;;;;;;;3.27;1.80;;;;;;;6.83;74.08;97239.56;5038668;28;20212;-69
2021/12/12 11:46:39;;;;;;;2.23;1.87;;;;;;;6.40;75.24;97251.19;5039959;28;20624;-71
2021/12/12 11:49:17;;;;;;;3.90;2.40;;;;;;;6.78;74.38;97235.69;5038241;28;20208;-70
2021/12/12 11:51:47;;;;;;;2.80;2.40;;;;;;;6.93;73.90;97237.00;5038306;28;20581;-70
2021/12/12 11:54:29;;;;;;;7.70;2.27;;;;;;;7.10;72.89;97225.91;5038135;28;20583;-70
2021/12/12 11:57:11;;;;;;;2.83;2.07;;;;;;;7.09;73.23;97225.09;5038589;28;20263;-70
2021/12/12 11:59:44;;;;;;;1.43;1.13;;;;;;;7.23;80.28;97218.63;5036702;28;20217;-70
2021/12/12 12:02:32;;;;;;;4.87;2.20;;;;;;;7.38;71.99;97216.34;5038344;28;20275;-70
2021/12/12 12:05:06;;;;;;;5.27;2.93;;;;;;;7.43;72.19;97219.41;5038157;28;20636;-70
2021/12/12 12:07:46;;;;;;;2.77;1.97;;;;;;;7.33;72.35;97217.69;5038485;28;20246;-70
2021/12/12 12:10:18;;;;;;;2.40;2.13;;;;;;;6.91;72.99;97225.81;5036852;28;20569;-69
2021/12/12 12:13:17;;;;;;;12.07;3.53;;;;;;;7.04;72.77;97216.78;5033096;28;20610;-68